Time;durP1;ratioP1;P1;durP2;ratioP2;P2;SDS_P1;SDS_P2;PMS_P1;PMS_P2;Temp;Humidity;BMP_temperature;BMP_pressure;BME280_temperature;BME280_humidity;BME280_pressure;Samples;Min_cycle;Max_cycle;Signal;HPM_P1;HPM_P2
2022/08/27 00:01:41;;;;;;;13.25;4.90;;;;;;;20.40;100.00;97661.55;1816924;77;28014;-89
2022/08/27 00:04:09;;;;;;;8.18;4.67;;;;;;;20.30;100.00;97663.66;1815167;78;28080;-89
2022/08/27 00:06:39;;;;;;;8.58;5.28;;;;;;;20.31;100.00;97662.68;1813506;77;28183;-90
2022/08/27 00:09:05;;;;;;;9.80;4.83;;;;;;;20.34;100.00;97664.16;1817693;78;28081;-89
2022/08/27 00:11:49;;;;;;;8.13;4.55;;;;;;;20.32;100.00;97678.13;1806614;78;28076;-89
2022/08/27 00:14:27;;;;;;;12.20;4.78;;;;;;;20.28;100.00;97674.17;1819437;78;28658;-89
2022/08/27 00:16:56;;;;;;;8.35;4.50;;;;;;;20.25;100.00;97675.34;1727852;78;28017;-89
2022/08/27 00:19:22;;;;;;;8.38;4.50;;;;;;;20.32;100.00;97682.11;1811954;77;28177;-88
2022/08/27 00:21:54;;;;;;;9.25;4.70;;;;;;;20.37;100.00;97681.87;1814356;76;28120;-89
2022/08/27 00:24:27;;;;;;;7.20;4.58;;;;;;;20.40;100.00;97684.14;1815243;78;28089;-89
2022/08/27 00:27:03;;;;;;;11.35;4.62;;;;;;;20.41;100.00;97682.30;1809577;78;28132;-89
2022/08/27 00:29:30;;;;;;;6.40;4.50;;;;;;;20.42;100.00;97684.78;1809811;78;28118;-89
2022/08/27 00:31:58;;;;;;;10.18;4.47;;;;;;;20.40;100.00;97678.82;1808885;78;27987;-88
2022/08/27 00:34:30;;;;;;;8.38;4.55;;;;;;;20.39;100.00;97679.03;1816725;77;38429;-88
2022/08/27 00:37:02;;;;;;;6.37;2.80;;;;;;;20.25;100.00;97675.34;1785511;78;28080;-89
2022/08/27 00:39:29;;;;;;;7.95;4.10;;;;;;;20.02;100.00;97677.30;1814986;78;28157;-89
2022/08/27 00:41:55;;;;;;;8.65;4.90;;;;;;;19.84;100.00;97683.02;1814128;78;28140;-89
2022/08/27 00:44:29;;;;;;;5.45;4.55;;;;;;;19.72;100.00;97672.52;1818307;78;28161;-89
2022/08/27 00:47:03;;;;;;;9.60;4.47;;;;;;;19.60;100.00;97675.30;1813350;77;28057;-89
2022/08/27 00:49:46;;;;;;;10.80;4.12;;;;;;;19.58;100.00;97674.16;1783897;78;28099;-89
2022/08/27 00:52:34;;;;;;;11.08;4.60;;;;;;;19.68;100.00;97674.41;1793154;79;28073;-89
2022/08/27 00:55:05;;;;;;;7.20;4.22;;;;;;;19.66;100.00;97677.23;1788432;79;28182;-89
2022/08/27 00:57:35;;;;;;;5.72;3.75;;;;;;;19.75;100.00;97688.58;1792973;79;28073;-88
2022/08/27 01:00:05;;;;;;;7.75;4.08;;;;;;;19.81;100.00;97686.52;1789638;79;28073;-89
2022/08/27 01:02:32;;;;;;;9.97;4.13;;;;;;;19.81;100.00;97687.84;1794584;79;28061;-89
2022/08/27 01:05:14;;;;;;;7.20;4.00;;;;;;;19.79;100.00;97687.23;1794617;78;28135;-89
2022/08/27 01:07:53;;;;;;;9.73;4.12;;;;;;;19.67;100.00;97686.02;1792729;79;28061;-88
2022/08/27 01:10:23;;;;;;;6.85;3.70;;;;;;;19.54;100.00;97678.69;1793091;78;28156;-89
2022/08/27 01:12:53;;;;;;;6.00;3.98;;;;;;;19.46;100.00;97675.63;1788160;78;28131;-89
2022/08/27 01:15:22;;;;;;;9.38;4.60;;;;;;;19.49;100.00;97675.75;1786515;78;28144;-89
2022/08/27 01:17:58;;;;;;;6.47;3.98;;;;;;;19.62;100.00;97679.44;1789266;78;28160;-89
2022/08/27 01:20:31;;;;;;;6.35;4.17;;;;;;;19.76;100.00;97682.27;1786704;79;27982;-89
2022/08/27 01:23:36;;;;;;;5.67;4.42;;;;;;;19.85;100.00;97683.84;1781170;79;28119;-89
2022/08/27 01:26:05;;;;;;;7.25;4.37;;;;;;;19.92;100.00;97686.06;1775724;79;28084;-89
2022/08/27 01:28:37;;;;;;;9.45;4.37;;;;;;;19.96;100.00;97686.86;1787593;78;28049;-89
2022/08/27 01:31:06;;;;;;;12.73;4.20;;;;;;;19.90;100.00;97680.12;1792458;79;28044;-88
2022/08/27 01:33:33;;;;;;;11.48;4.72;;;;;;;19.93;100.00;97683.23;1781840;79;28131;-89
2022/08/27 01:36:02;;;;;;;9.28;4.50;;;;;;;19.97;100.00;97678.36;1792265;79;28127;-88
2022/08/27 01:38:37;;;;;;;7.35;4.08;;;;;;;19.84;100.00;97670.23;1780250;79;28083;-88
2022/08/27 01:41:03;;;;;;;10.23;4.62;;;;;;;19.75;100.00;97672.64;1796038;78;28077;-88
2022/08/27 01:43:36;;;;;;;8.13;4.50;;;;;;;19.79;100.00;97679.26;1793358;79;28085;-88
2022/08/27 01:46:03;;;;;;;11.63;4.60;;;;;;;19.81;100.00;97675.89;1785985;79;28111;-89
2022/08/27 01:48:29;;;;;;;7.97;4.65;;;;;;;19.81;100.00;97681.20;1793622;79;28080;-89
2022/08/27 01:50:55;;;;;;;9.35;4.90;;;;;;;19.66;100.00;97677.73;1789805;78;28059;-88
2022/08/27 01:53:27;;;;;;;11.18;5.75;;;;;;;19.48;100.00;97678.08;1786108;78;28157;-89
2022/08/27 01:55:54;;;;;;;6.25;3.70;;;;;;;19.26;100.00;97679.75;1790257;79;28138;-88
2022/08/27 01:58:25;;;;;;;8.23;4.30;;;;;;;19.07;100.00;97678.95;1794707;78;28151;-88
2022/08/27 02:00:55;;;;;;;5.40;3.33;;;;;;;18.93;100.00;97677.88;1788841;78;28120;-88
2022/08/27 02:03:28;;;;;;;5.47;3.60;;;;;;;18.84;100.00;97676.80;1790121;78;28148;-88
2022/08/27 02:05:54;;;;;;;7.20;4.30;;;;;;;18.84;100.00;97672.33;1789203;79;28061;-88
2022/08/27 02:08:21;;;;;;;7.42;4.42;;;;;;;19.01;100.00;97680.48;1792498;79;28082;-88
2022/08/27 02:11:03;;;;;;;9.20;4.28;;;;;;;19.12;100.00;97680.06;1790550;79;28150;-89
2022/08/27 02:13:30;;;;;;;10.15;4.53;;;;;;;19.17;100.00;97680.34;1791461;79;28471;-88
2022/08/27 02:15:58;;;;;;;7.45;4.83;;;;;;;19.19;100.00;97676.19;1788000;78;28057;-88
2022/08/27 02:18:30;;;;;;;6.83;3.87;;;;;;;19.03;100.00;97676.33;1796276;79;28077;-88
2022/08/27 02:20:57;;;;;;;11.22;4.20;;;;;;;18.85;100.00;97667.85;1767339;79;28104;-88
2022/08/27 02:23:25;;;;;;;7.12;4.00;;;;;;;18.70;100.00;97672.61;1792599;79;28151;-88
2022/08/27 02:25:57;;;;;;;9.80;4.22;;;;;;;18.61;100.00;97675.47;1788366;79;28069;-88
2022/08/27 02:28:24;;;;;;;10.13;4.83;;;;;;;18.56;100.00;97673.35;1792323;79;28087;-88
2022/08/27 02:30:50;;;;;;;6.42;4.35;;;;;;;18.56;100.00;97676.00;1796744;79;28064;-88
2022/08/27 02:33:16;;;;;;;7.03;4.80;;;;;;;18.73;100.00;97681.52;1786202;79;28095;-88
2022/08/27 02:35:44;;;;;;;6.28;4.10;;;;;;;18.88;100.00;97690.02;1792055;79;28072;-88
2022/08/27 02:38:14;;;;;;;8.68;4.37;;;;;;;18.99;100.00;97694.91;1789806;79;28076;-88
2022/08/27 02:40:41;;;;;;;4.35;3.45;;;;;;;19.05;100.00;97693.70;1793516;79;28044;-88
2022/08/27 02:43:10;;;;;;;5.53;4.10;;;;;;;19.12;100.00;97696.47;1793140;78;28077;-88
2022/08/27 02:45:52;;;;;;;9.00;4.30;;;;;;;19.17;100.00;97693.60;1782770;79;28097;-88
2022/08/27 02:48:42;;;;;;;6.95;4.35;;;;;;;19.21;100.00;97694.89;1788410;79;28207;-88
2022/08/27 02:51:09;;;;;;;7.27;4.27;;;;;;;19.24;100.00;97692.39;1812326;78;33713;-88
2022/08/27 02:53:36;;;;;;;5.47;3.90;;;;;;;19.05;100.00;97692.37;1812970;78;28141;-88
2022/08/27 02:56:13;;;;;;;7.80;3.95;;;;;;;18.91;100.00;97682.55;1811630;78;28082;-89
2022/08/27 02:58:40;;;;;;;6.65;4.15;;;;;;;18.82;100.00;97685.45;1820664;78;28085;-88
2022/08/27 03:01:06;;;;;;;5.95;3.80;;;;;;;18.69;100.00;97676.25;1813941;78;28179;-88
2022/08/27 03:03:34;;;;;;;7.50;4.37;;;;;;;18.60;100.00;97680.47;1818325;77;28151;-89
2022/08/27 03:06:01;;;;;;;6.22;4.47;;;;;;;18.49;100.00;97678.19;1816151;78;28069;-88
2022/08/27 03:08:28;;;;;;;6.70;4.37;;;;;;;18.42;100.00;97679.88;1820378;78;28070;-88
2022/08/27 03:10:56;;;;;;;8.13;3.80;;;;;;;18.41;100.00;97677.73;1810699;78;28097;-89
2022/08/27 03:13:40;;;;;;;9.25;3.95;;;;;;;18.38;100.00;97678.09;1796795;78;28111;-89
2022/08/27 03:16:07;;;;;;;6.78;3.75;;;;;;;18.36;100.00;97669.48;1812864;78;28096;-89
2022/08/27 03:18:46;;;;;;;6.30;4.60;;;;;;;18.33;100.00;97675.11;1814668;77;28183;-88
2022/08/27 03:21:29;;;;;;;7.12;4.35;;;;;;;18.37;100.00;97672.46;1805448;77;28072;-88
2022/08/27 03:24:04;;;;;;;6.42;4.25;;;;;;;18.55;100.00;97670.38;1826631;77;28104;-89
2022/08/27 03:26:35;;;;;;;8.43;4.20;;;;;;;18.55;100.00;97670.38;1817303;77;28094;-89
2022/08/27 03:29:06;;;;;;;7.60;4.33;;;;;;;18.55;100.00;97673.02;1817687;78;28055;-88
2022/08/27 03:31:32;;;;;;;4.72;3.27;;;;;;;18.66;100.00;97671.79;1813448;77;28069;-88
2022/08/27 03:34:05;;;;;;;5.40;3.98;;;;;;;18.76;100.00;97673.73;1782161;79;28054;-88
2022/08/27 03:36:32;;;;;;;5.22;4.08;;;;;;;18.81;100.00;97678.00;1812397;78;28081;-88
2022/08/27 03:38:58;;;;;;;8.58;4.33;;;;;;;18.85;100.00;97681.94;1817598;77;28080;-88
2022/08/27 03:41:26;;;;;;;6.28;4.70;;;;;;;18.87;100.00;97679.12;1809946;77;43034;-87
2022/08/27 03:43:53;;;;;;;10.93;4.35;;;;;;;18.89;100.00;97683.72;1825177;78;28058;-87
2022/08/27 03:46:37;;;;;;;8.60;4.10;;;;;;;18.86;100.00;97682.27;1808773;78;28113;-88
2022/08/27 03:49:04;;;;;;;;;;;;;;;18.81;100.00;97685.95;1821437;78;28508;-88
2022/08/27 03:51:33;;;;;;;8.80;4.33;;;;;;;18.76;100.00;97691.76;1815190;78;23099;-88
2022/08/27 03:54:06;;;;;;;9.28;5.03;;;;;;;18.74;100.00;97696.93;1815728;78;28077;-88
2022/08/27 03:56:40;;;;;;;11.63;5.10;;;;;;;18.71;100.00;97692.79;1815841;78;28153;-88
2022/08/27 03:59:15;;;;;;;8.55;5.53;;;;;;;18.68;100.00;97682.55;1817961;77;28166;-88
2022/08/27 04:01:46;;;;;;;11.93;5.83;;;;;;;18.63;100.00;97686.73;1811496;77;28134;-88
2022/08/27 04:04:24;;;;;;;9.95;5.08;;;;;;;18.64;100.00;97689.22;1819443;78;28066;-88
2022/08/27 04:06:56;;;;;;;9.53;5.22;;;;;;;18.63;100.00;97691.53;1821401;77;28167;-88
2022/08/27 04:09:31;;;;;;;12.18;6.80;;;;;;;18.65;100.00;97692.20;1820471;78;28064;-88
2022/08/27 04:12:04;;;;;;;11.73;5.97;;;;;;;18.69;100.00;97702.77;1812567;77;28133;-88
2022/08/27 04:14:30;;;;;;;10.75;5.85;;;;;;;18.71;100.00;97710.02;1817247;78;28207;-88
2022/08/27 04:17:00;;;;;;;11.73;6.10;;;;;;;18.75;100.00;97713.99;1814723;78;28172;-89
2022/08/27 04:19:29;;;;;;;15.00;6.90;;;;;;;18.79;100.00;97715.78;1809694;77;28179;-89
2022/08/27 04:22:13;;;;;;;12.40;6.70;;;;;;;18.82;100.00;97710.64;1820440;77;27998;-88
2022/08/27 04:24:54;;;;;;;12.33;6.37;;;;;;;18.87;100.00;97716.23;1820975;78;28141;-89
2022/08/27 04:27:30;;;;;;;11.12;5.58;;;;;;;18.93;100.00;97711.55;1814457;78;28101;-89
2022/08/27 04:30:02;;;;;;;9.43;5.17;;;;;;;18.97;100.00;97715.50;1820227;77;28018;-88
2022/08/27 04:32:29;;;;;;;11.95;5.42;;;;;;;18.93;100.00;97713.67;1808641;78;28068;-89
2022/08/27 04:34:59;;;;;;;15.88;6.60;;;;;;;18.86;100.00;97714.08;1813323;78;28165;-89
2022/08/27 04:37:31;;;;;;;8.10;5.15;;;;;;;18.80;100.00;97711.64;1809848;78;28095;-89
2022/08/27 04:40:04;;;;;;;10.00;5.53;;;;;;;18.72;100.00;97709.02;1808465;78;28090;-88
2022/08/27 04:42:31;;;;;;;12.00;5.62;;;;;;;18.74;100.00;97707.03;1817913;77;28092;-88
2022/08/27 04:44:57;;;;;;;12.55;6.28;;;;;;;18.87;100.00;97703.81;1816620;77;28017;-89
2022/08/27 04:47:41;;;;;;;11.65;6.25;;;;;;;19.01;100.00;97707.50;1813077;77;28179;-88
2022/08/27 04:50:08;;;;;;;8.70;5.25;;;;;;;19.12;100.00;97716.36;1814350;78;28092;-89
2022/08/27 04:52:37;;;;;;;11.08;5.40;;;;;;;19.21;100.00;97709.98;1818778;78;28196;-89
2022/08/27 04:55:09;;;;;;;15.68;6.60;;;;;;;19.19;100.00;97706.20;1809762;78;28077;-88
2022/08/27 04:57:47;;;;;;;11.53;6.20;;;;;;;19.23;100.00;97710.14;1815335;78;28142;-88
2022/08/27 05:00:18;;;;;;;15.58;6.12;;;;;;;19.18;100.00;97703.22;1812818;77;28171;-89
2022/08/27 05:02:44;;;;;;;9.38;5.53;;;;;;;19.25;100.00;97717.92;1811718;78;28124;-89
2022/08/27 05:05:19;;;;;;;8.40;5.25;;;;;;;19.38;100.00;97726.08;1813813;78;28105;-88
2022/08/27 05:07:47;;;;;;;8.98;5.42;;;;;;;19.48;100.00;97725.85;1809579;78;28053;-88
2022/08/27 05:10:19;;;;;;;13.45;5.92;;;;;;;19.58;100.00;97723.26;1812213;77;28147;-87
2022/08/27 05:12:49;;;;;;;10.08;5.20;;;;;;;19.59;100.00;97720.93;1793473;78;28217;-88
2022/08/27 05:15:34;;;;;;;8.25;5.25;;;;;;;19.62;100.00;97725.89;1811785;78;28030;-88
2022/08/27 05:18:01;;;;;;;11.10;5.25;;;;;;;19.73;100.00;97726.45;1811020;77;28146;-88
2022/08/27 05:20:30;;;;;;;8.28;5.45;;;;;;;19.69;100.00;97729.98;1815755;78;28102;-88
2022/08/27 05:22:58;;;;;;;9.25;5.80;;;;;;;19.70;100.00;97733.44;1816161;78;27999;-88
2022/08/27 05:25:26;;;;;;;13.48;5.25;;;;;;;19.77;100.00;97733.87;1812674;78;28048;-88
2022/08/27 05:27:52;;;;;;;12.55;5.20;;;;;;;19.85;100.00;97736.95;1815853;78;28079;-89
2022/08/27 05:30:27;;;;;;;10.20;5.45;;;;;;;19.95;100.00;97733.52;1822115;77;28086;-88
2022/08/27 05:32:53;;;;;;;13.18;5.62;;;;;;;20.03;100.00;97734.23;1810834;78;28081;-89
2022/08/27 05:35:19;;;;;;;10.75;5.87;;;;;;;20.07;100.00;97733.38;1802268;77;28101;-88
2022/08/27 05:37:47;;;;;;;13.22;5.67;;;;;;;20.13;100.00;97727.84;1808172;77;28185;-88
2022/08/27 05:40:22;;;;;;;9.75;5.70;;;;;;;20.20;100.00;97724.23;1815477;78;28075;-88
2022/08/27 05:42:49;;;;;;;10.88;5.45;;;;;;;20.29;100.00;97727.11;1812118;78;28059;-89
2022/08/27 05:45:16;;;;;;;8.38;5.00;;;;;;;20.35;100.00;97719.76;1813047;78;28090;-88
2022/08/27 05:47:52;;;;;;;9.00;5.20;;;;;;;20.39;100.00;97709.59;1811130;77;28093;-89
2022/08/27 05:50:33;;;;;;;8.18;5.58;;;;;;;20.45;100.00;97697.72;1812320;78;27986;-89
2022/08/27 05:53:13;;;;;;;8.53;5.22;;;;;;;20.49;100.00;97699.98;1814923;78;28164;-88
2022/08/27 05:55:45;;;;;;;7.08;4.85;;;;;;;20.54;100.00;97702.41;1812394;78;28131;-89
2022/08/27 06:01:05;;;;;;;9.58;5.87;;;;;;;20.62;100.00;97702.81;1819389;78;28070;-89
2022/08/27 06:03:35;;;;;;;10.23;5.90;;;;;;;20.65;100.00;97712.55;1807974;78;28064;-89
2022/08/27 06:06:09;;;;;;;8.40;4.95;;;;;;;20.70;100.00;97719.95;1815895;78;28121;-89
2022/08/27 06:08:39;;;;;;;11.00;6.40;;;;;;;20.73;100.00;97715.08;1816497;78;28152;-89
2022/08/27 06:11:07;;;;;;;13.28;6.30;;;;;;;20.76;100.00;97725.35;1806695;77;28120;-91
2022/08/27 06:13:44;;;;;;;15.03;5.78;;;;;;;20.81;100.00;97726.11;1819976;77;28073;-89
2022/08/27 06:16:19;;;;;;;14.87;5.90;;;;;;;20.82;100.00;97727.77;1787286;78;28148;-89
2022/08/27 06:18:49;;;;;;;11.75;5.87;;;;;;;20.85;100.00;97728.20;1810388;78;28042;-88
2022/08/27 06:21:21;;;;;;;17.85;6.72;;;;;;;20.92;100.00;97740.25;1812778;77;28127;-89
2022/08/27 06:23:48;;;;;;;11.70;6.37;;;;;;;20.93;100.00;97743.23;1811575;78;27991;-88
2022/08/27 06:26:17;;;;;;;14.53;6.28;;;;;;;20.97;100.00;97739.67;1810094;78;28087;-88
2022/08/27 06:28:50;;;;;;;11.80;6.03;;;;;;;21.00;100.00;97734.78;1818656;77;28076;-88
2022/08/27 06:31:51;;;;;;;11.08;6.92;;;;;;;21.05;100.00;97742.22;1809778;78;28023;-90
2022/08/27 06:34:23;;;;;;;7.97;4.17;;;;;;;21.08;100.00;97736.00;1812979;78;28035;-88
2022/08/27 06:37:02;;;;;;;10.30;5.75;;;;;;;21.12;100.00;97737.27;1815406;78;28200;-89
2022/08/27 06:39:38;;;;;;;14.73;5.45;;;;;;;21.16;100.00;97735.92;1790815;78;28160;-89
2022/08/27 06:42:07;;;;;;;8.15;5.53;;;;;;;21.23;100.00;97746.09;1813822;78;28091;-90
2022/08/27 06:44:33;;;;;;;10.72;5.87;;;;;;;21.28;100.00;97744.19;1816580;78;28061;-88
2022/08/27 06:47:02;;;;;;;12.30;5.40;;;;;;;21.33;100.00;97747.64;1802422;77;28133;-88
2022/08/27 06:49:29;;;;;;;8.93;5.55;;;;;;;21.38;100.00;97746.55;1806056;78;28003;-88
2022/08/27 06:51:58;;;;;;;11.93;5.40;;;;;;;21.44;100.00;97749.24;1813598;78;28152;-89
2022/08/27 06:54:24;;;;;;;10.88;5.03;;;;;;;21.55;100.00;97757.22;1824904;78;28093;-88
2022/08/27 06:56:51;;;;;;;8.20;4.83;;;;;;;21.65;100.00;97761.72;1808169;77;28106;-88
2022/08/27 06:59:18;;;;;;;9.65;5.12;;;;;;;21.72;100.00;97766.57;1814261;78;28194;-88
2022/08/27 07:01:54;;;;;;;9.25;5.33;;;;;;;21.78;100.00;97769.80;1813018;78;28080;-88
2022/08/27 07:04:30;;;;;;;8.88;4.72;;;;;;;21.84;100.00;97774.86;1814166;78;28110;-89
2022/08/27 07:07:18;;;;;;;7.65;4.58;;;;;;;21.92;100.00;97783.54;1812101;78;28097;-88
2022/08/27 07:09:50;;;;;;;8.88;4.55;;;;;;;22.05;100.00;97782.81;1813562;78;28059;-87
2022/08/27 07:12:22;;;;;;;6.20;3.72;;;;;;;22.13;100.00;97790.67;1815625;78;28149;-90
2022/08/27 07:14:49;;;;;;;8.48;4.20;;;;;;;22.22;100.00;97783.33;1812114;78;28058;-88
2022/08/27 07:17:23;;;;;;;8.20;4.60;;;;;;;22.25;100.00;97783.78;1793116;79;27983;-89
2022/08/27 07:19:55;;;;;;;7.80;4.25;;;;;;;22.31;100.00;97789.63;1819159;77;28138;-88
2022/08/27 07:22:31;;;;;;;6.47;4.30;;;;;;;22.38;100.00;97793.16;1815897;78;28102;-89
2022/08/27 07:25:11;;;;;;;9.03;4.17;;;;;;;22.43;100.00;97793.39;1812067;77;28029;-88
2022/08/27 07:27:38;;;;;;;8.20;4.60;;;;;;;22.49;100.00;97803.28;1814499;78;28108;-88
2022/08/27 07:30:12;;;;;;;7.12;3.70;;;;;;;22.56;100.00;97814.48;1814705;77;28179;-89
2022/08/27 07:32:47;;;;;;;7.28;4.20;;;;;;;22.63;100.00;97814.02;1811795;78;28089;-89
2022/08/27 07:35:16;;;;;;;8.20;4.33;;;;;;;22.72;100.00;97815.02;1812042;78;28143;-88
2022/08/27 07:37:45;;;;;;;10.68;5.12;;;;;;;22.79;100.00;97819.88;1812446;78;28115;-88
2022/08/27 07:40:19;;;;;;;10.65;5.67;;;;;;;22.80;100.00;97825.49;1817410;78;28054;-88
2022/08/27 07:45:46;;;;;;;8.85;6.15;;;;;;;22.88;100.00;97838.67;1818451;78;28080;-88
2022/08/27 07:48:15;;;;;;;13.28;5.85;;;;;;;22.94;100.00;97836.55;1812525;78;28086;-88
2022/08/27 07:50:42;;;;;;;10.90;6.00;;;;;;;22.98;100.00;97839.62;1810800;78;28180;-88
2022/08/27 07:53:09;;;;;;;11.28;6.37;;;;;;;22.98;100.00;97842.30;1797216;78;28099;-88
2022/08/27 07:55:39;;;;;;;11.18;5.70;;;;;;;22.98;100.00;97845.48;1792307;78;27991;-89
2022/08/27 07:58:06;;;;;;;10.30;5.80;;;;;;;22.96;100.00;97844.37;1789177;79;28099;-88
2022/08/27 08:00:35;;;;;;;9.78;5.45;;;;;;;22.94;100.00;97842.39;1790043;79;28080;-88
2022/08/27 08:03:04;;;;;;;11.05;5.47;;;;;;;22.96;100.00;97841.70;1793052;79;28087;-88
2022/08/27 08:05:31;;;;;;;11.50;5.97;;;;;;;22.99;100.00;97837.78;1794135;79;28057;-89
2022/08/27 08:08:04;;;;;;;12.15;5.80;;;;;;;23.03;100.00;97839.02;1791200;79;28072;-89
2022/08/27 08:10:43;;;;;;;13.58;5.78;;;;;;;23.11;100.00;97842.87;1791930;79;28103;-88
2022/08/27 08:13:09;;;;;;;10.03;4.80;;;;;;;23.17;100.00;97851.41;1790590;79;28093;-88
2022/08/27 08:15:36;;;;;;;6.33;4.55;;;;;;;23.24;100.00;97854.39;1792547;79;28224;-88
2022/08/27 08:18:03;;;;;;;9.50;4.30;;;;;;;23.27;100.00;97858.02;1792136;79;28057;-88
2022/08/27 08:20:30;;;;;;;8.85;4.80;;;;;;;23.31;100.00;97861.09;1795898;79;27974;-89
2022/08/27 08:22:56;;;;;;;9.20;5.20;;;;;;;23.31;100.00;97864.59;1791033;79;28072;-88
2022/08/27 08:25:34;;;;;;;9.05;5.15;;;;;;;23.31;100.00;97865.92;1793822;79;28087;-89
2022/08/27 08:28:13;;;;;;;7.60;4.37;;;;;;;23.36;100.00;97872.81;1773413;79;28104;-89
2022/08/27 08:30:42;;;;;;;5.87;4.10;;;;;;;23.43;100.00;97864.83;1785097;79;28103;-88
2022/08/27 08:33:11;;;;;;;8.30;4.50;;;;;;;23.49;100.00;97866.72;1793765;79;28041;-89
2022/08/27 08:35:39;;;;;;;7.47;4.10;;;;;;;23.57;100.00;97874.53;1785170;79;27997;-88
2022/08/27 08:38:06;;;;;;;8.00;3.77;;;;;;;23.67;100.00;97868.81;1794624;79;28169;-89
2022/08/27 08:40:53;;;;;;;6.92;3.27;;;;;;;23.71;100.00;97870.88;1796133;79;28069;-89
2022/08/27 08:43:35;;;;;;;7.62;3.70;;;;;;;23.74;100.00;97870.95;1776584;79;28081;-88
2022/08/27 08:46:22;;;;;;;6.60;4.03;;;;;;;23.82;100.00;97871.28;1792695;78;28072;-89
2022/08/27 08:48:50;;;;;;;6.40;3.75;;;;;;;23.90;100.00;97873.73;1790034;79;28025;-89
2022/08/27 08:51:35;;;;;;;7.37;3.15;;;;;;;24.01;100.00;97883.82;1781553;79;28135;-89
2022/08/27 08:54:24;;;;;;;7.87;3.98;;;;;;;24.12;100.00;97872.51;1811946;78;28088;-89
2022/08/27 08:57:07;;;;;;;6.58;4.12;;;;;;;24.22;100.00;97867.59;1811087;77;28164;-89
2022/08/27 08:59:37;;;;;;;4.83;3.30;;;;;;;24.34;100.00;97873.96;1817003;77;28072;-89
2022/08/27 09:02:14;;;;;;;7.60;3.50;;;;;;;24.44;100.00;97874.86;1814296;77;28084;-89
2022/08/27 09:04:59;;;;;;;7.37;3.95;;;;;;;24.49;100.00;97878.56;1815563;78;28117;-88
2022/08/27 09:07:44;;;;;;;6.67;4.05;;;;;;;24.55;100.00;97880.92;1818938;77;28046;-88
2022/08/27 09:10:32;;;;;;;7.60;3.52;;;;;;;24.56;100.00;97878.55;1808311;78;28193;-89
2022/08/27 09:13:08;;;;;;;9.58;3.98;;;;;;;24.56;100.00;97874.03;1810990;78;28040;-89
2022/08/27 09:15:44;;;;;;;7.35;3.50;;;;;;;24.66;100.00;97874.13;1818341;77;28075;-89
2022/08/27 09:18:15;;;;;;;8.18;3.75;;;;;;;24.77;100.00;97872.94;1816916;78;28123;-88
2022/08/27 09:21:04;;;;;;;6.17;3.30;;;;;;;24.86;100.00;97869.02;1813178;78;28116;-88
2022/08/27 09:23:52;;;;;;;9.63;4.12;;;;;;;24.98;100.00;97871.89;1812553;77;28090;-89
2022/08/27 09:26:24;;;;;;;6.17;3.50;;;;;;;25.05;100.00;97869.16;1816219;77;28014;-89
2022/08/27 09:29:14;;;;;;;7.65;3.60;;;;;;;25.18;100.00;97877.15;1814006;77;28140;-88
2022/08/27 09:31:59;;;;;;;4.43;2.77;;;;;;;25.31;100.00;97868.52;1812191;78;28124;-89
2022/08/27 09:34:35;;;;;;;7.03;3.55;;;;;;;25.49;100.00;97871.00;1820902;78;28068;-89
2022/08/27 09:37:24;;;;;;;7.65;3.22;;;;;;;25.64;100.00;97868.34;1810881;77;28539;-88
2022/08/27 09:40:06;;;;;;;6.03;2.77;;;;;;;25.74;100.00;97867.37;1810609;78;28117;-89
2022/08/27 09:42:46;;;;;;;6.10;3.25;;;;;;;25.80;100.00;97865.14;1811094;78;28158;-88
2022/08/27 09:45:28;;;;;;;4.83;2.92;;;;;;;25.87;100.00;97864.27;1819160;78;28100;-89
2022/08/27 09:48:23;;;;;;;3.80;2.60;;;;;;;25.89;100.00;97857.67;1821188;77;28164;-88
2022/08/27 09:51:02;;;;;;;4.30;2.65;;;;;;;25.93;100.00;97856.70;1816206;77;28100;-88
2022/08/27 09:53:55;;;;;;;7.60;3.12;;;;;;;25.98;100.00;97848.30;1813832;77;28231;-89
2022/08/27 09:56:36;;;;;;;6.10;3.12;;;;;;;26.03;100.00;97840.41;1816984;77;28092;-89
2022/08/27 09:59:27;;;;;;;5.65;3.37;;;;;;;26.08;100.00;97837.07;1808423;77;28144;-88
2022/08/27 10:02:01;;;;;;;8.90;3.33;;;;;;;26.09;100.00;97836.86;1814268;78;28070;-88
2022/08/27 10:04:49;;;;;;;5.87;3.27;;;;;;;26.02;100.00;97828.05;1808740;78;28075;-88
2022/08/27 10:07:43;;;;;;;5.72;3.60;;;;;;;26.05;100.00;97827.62;1808639;78;28003;-88
2022/08/27 10:10:35;;;;;;;5.10;3.60;;;;;;;26.13;100.00;97834.03;1814193;78;28074;-88
2022/08/27 10:13:17;;;;;;;7.35;3.65;;;;;;;26.27;100.00;97838.80;1815317;78;28088;-88
2022/08/27 10:16:20;;;;;;;9.15;3.95;;;;;;;26.36;100.00;97832.09;1822272;77;28081;-88
2022/08/27 10:19:33;;;;;;;7.28;3.27;;;;;;;26.46;100.00;97835.59;1813538;77;28098;-87
2022/08/27 10:22:31;;;;;;;8.83;4.10;;;;;;;26.37;100.00;97826.20;1813853;77;28092;-88
2022/08/27 10:25:09;;;;;;;7.47;3.50;;;;;;;26.26;100.00;97818.37;1814684;77;28121;-88
2022/08/27 10:27:46;;;;;;;4.40;3.22;;;;;;;26.41;100.00;97822.84;1816974;77;28149;-89
2022/08/27 10:30:23;;;;;;;5.30;3.12;;;;;;;26.60;100.00;97818.32;1812860;78;28049;-87
2022/08/27 10:32:55;;;;;;;5.75;3.65;;;;;;;26.70;100.00;97822.64;1811907;78;28017;-88
2022/08/27 10:35:40;;;;;;;6.87;3.87;;;;;;;26.75;100.00;97822.78;1818414;77;28094;-88
2022/08/27 10:38:22;;;;;;;6.87;3.15;;;;;;;26.86;100.00;97819.34;1819309;77;28109;-87
2022/08/27 10:40:55;;;;;;;5.45;3.10;;;;;;;26.95;100.00;97819.36;1799686;78;28023;-87
2022/08/27 10:43:41;;;;;;;8.63;3.50;;;;;;;27.03;100.00;97819.58;1819552;77;28125;-87
2022/08/27 10:46:47;;;;;;;8.33;3.40;;;;;;;27.06;100.00;97821.28;1746270;78;28107;-88
2022/08/27 10:49:49;;;;;;;5.62;2.60;;;;;;;27.15;100.00;97818.29;1794459;77;28114;-88
2022/08/27 10:52:31;;;;;;;2.85;2.52;;;;;;;27.13;100.00;97810.97;1810784;77;28012;-89
2022/08/27 10:55:25;;;;;;;4.12;2.22;;;;;;;27.12;100.00;97803.95;1816100;77;28144;-88
2022/08/27 10:58:30;;;;;;;4.37;2.20;;;;;;;27.18;100.00;97800.36;1812773;78;28087;-88
2022/08/27 11:01:11;;;;;;;4.00;2.17;;;;;;;27.21;100.00;97798.58;1814008;77;28121;-87
2022/08/27 11:03:40;;;;;;;4.17;2.27;;;;;;;27.05;100.00;97794.14;1812007;77;28066;-88
2022/08/27 11:06:15;;;;;;;3.55;2.27;;;;;;;26.85;100.00;97794.05;1820637;78;28192;-87
2022/08/27 11:08:48;;;;;;;5.80;2.67;;;;;;;26.82;100.00;97793.17;1752961;78;28135;-87
2022/08/27 11:11:18;;;;;;;6.08;2.80;;;;;;;26.77;100.00;97790.34;1813558;77;28062;-88
2022/08/27 11:13:48;;;;;;;4.42;2.77;;;;;;;26.75;100.00;97795.11;1813666;77;28086;-88
2022/08/27 11:16:40;;;;;;;3.55;2.85;;;;;;;26.76;100.00;97797.58;1816038;77;28058;-88
2022/08/27 11:19:19;;;;;;;4.37;2.45;;;;;;;26.92;100.00;97799.67;1813122;77;28062;-88
2022/08/27 11:22:04;;;;;;;7.53;2.77;;;;;;;27.16;100.00;97797.09;1817160;77;28035;-88
2022/08/27 11:24:44;;;;;;;4.28;2.92;;;;;;;27.28;100.00;97803.31;1820157;77;28160;-88
2022/08/27 11:27:14;;;;;;;4.78;2.50;;;;;;;27.50;100.00;97803.11;1813596;78;28110;-88
2022/08/27 11:29:50;;;;;;;6.30;2.30;;;;;;;27.63;100.00;97802.10;1812796;77;28180;-88
2022/08/27 11:32:26;;;;;;;3.12;2.52;;;;;;;27.69;100.00;97806.56;1809229;77;28121;-88
2022/08/27 11:34:58;;;;;;;7.25;3.35;;;;;;;27.59;100.00;97806.31;1808518;78;28061;-88
2022/08/27 11:37:31;;;;;;;6.25;2.90;;;;;;;27.43;100.00;97802.38;1815695;77;28166;-88
2022/08/27 11:40:18;;;;;;;6.62;3.22;;;;;;;27.43;100.00;97806.42;1811824;77;28137;-88
2022/08/27 11:43:03;;;;;;;7.20;2.80;;;;;;;27.40;100.00;97804.17;1812736;78;28038;-88
2022/08/27 11:45:39;;;;;;;5.53;2.98;;;;;;;27.24;100.00;97798.10;1813947;77;28097;-88
2022/08/27 11:48:25;;;;;;;6.83;3.02;;;;;;;27.15;100.00;97804.86;1817062;77;28037;-87
2022/08/27 11:51:02;;;;;;;6.15;3.00;;;;;;;27.19;100.00;97795.28;1811432;77;28171;-89
2022/08/27 11:53:32;;;;;;;9.03;2.85;;;;;;;27.37;100.00;97795.23;1750035;77;28169;-88
2022/08/27 11:56:05;;;;;;;4.15;2.70;;;;;;;27.47;100.00;97793.63;1813519;77;28121;-89
2022/08/27 11:58:33;;;;;;;5.67;3.15;;;;;;;27.59;100.00;97795.03;1781155;78;28120;-88
2022/08/27 12:01:01;;;;;;;2.35;2.15;;;;;;;27.75;100.00;97802.42;1811870;77;28113;-89
2022/08/27 12:03:31;;;;;;;4.58;2.47;;;;;;;27.87;100.00;97793.84;1822168;78;28172;-88